createdAt,value
2019-05-21T00:00:35.607Z,15.76
2019-05-21T00:01:35.588Z,15.82
2019-05-21T00:02:35.590Z,15.84
2019-05-21T00:03:35.578Z,15.86
2019-05-21T00:04:35.564Z,15.86
2019-05-21T00:05:35.547Z,15.87
2019-05-21T00:06:35.560Z,15.90
2019-05-21T00:07:35.553Z,15.83
2019-05-21T00:08:35.511Z,15.92
2019-05-21T00:09:35.499Z,15.89
2019-05-21T00:10:35.497Z,15.84
2019-05-21T00:11:35.479Z,15.75
2019-05-21T00:12:35.475Z,15.83
2019-05-21T00:13:35.456Z,15.78
2019-05-21T00:14:35.455Z,15.83
2019-05-21T00:15:35.435Z,15.84
2019-05-21T00:16:35.426Z,15.78
2019-05-21T00:17:35.425Z,15.84
2019-05-21T00:18:35.423Z,15.83
2019-05-21T00:19:35.385Z,15.86
2019-05-21T00:20:35.369Z,15.87
2019-05-21T00:21:35.359Z,15.84
2019-05-21T00:22:35.650Z,15.89
2019-05-21T00:23:35.368Z,15.86
2019-05-21T00:24:35.382Z,15.83
2019-05-21T00:25:35.357Z,15.74
2019-05-21T00:26:35.312Z,15.74
2019-05-21T00:27:35.294Z,15.71
2019-05-21T00:28:35.323Z,15.78
2019-05-21T00:29:35.271Z,15.80
2019-05-21T00:30:35.259Z,15.83
2019-05-21T00:31:35.259Z,15.78
2019-05-21T00:32:35.235Z,15.75
2019-05-21T00:33:35.243Z,15.76
2019-05-21T00:34:43.554Z,15.74
2019-05-21T00:35:36.198Z,15.71
2019-05-21T00:36:35.271Z,15.78
2019-05-21T00:37:35.181Z,15.69
2019-05-21T00:38:35.179Z,15.68
2019-05-21T00:39:35.161Z,15.71
2019-05-21T00:40:35.155Z,15.64
2019-05-21T00:41:35.140Z,15.68
2019-05-21T00:42:35.121Z,15.62
2019-05-21T00:43:35.125Z,15.62
2019-05-21T00:44:35.090Z,15.62
2019-05-21T00:45:35.088Z,15.62
2019-05-21T00:46:35.073Z,15.64
2019-05-21T00:47:35.060Z,15.60
2019-05-21T00:48:35.055Z,15.60
2019-05-21T00:49:35.039Z,15.59
2019-05-21T00:50:35.045Z,15.57
2019-05-21T00:51:35.036Z,15.53
2019-05-21T00:52:35.006Z,15.53
2019-05-21T00:53:35.004Z,15.68
2019-05-21T00:54:34.989Z,15.59
2019-05-21T00:55:34.994Z,15.54
2019-05-21T00:56:34.950Z,15.53
2019-05-21T00:57:34.955Z,15.53
2019-05-21T00:58:34.936Z,15.51
2019-05-21T00:59:34.923Z,15.56
2019-05-21T01:00:34.907Z,15.57
2019-05-21T01:01:34.909Z,15.62
2019-05-21T01:02:34.966Z,15.59
2019-05-21T01:03:34.922Z,15.57
2019-05-21T01:04:34.870Z,15.56
2019-05-21T01:05:34.854Z,15.56
2019-05-21T01:06:34.836Z,15.47
2019-05-21T01:07:34.848Z,15.50
2019-05-21T01:08:34.831Z,15.57
2019-05-21T01:09:34.808Z,15.50
2019-05-21T01:10:34.791Z,15.47
2019-05-21T01:11:34.781Z,15.50
2019-05-21T01:12:34.771Z,15.46
2019-05-21T01:13:34.798Z,15.43
2019-05-21T01:14:34.743Z,15.39
2019-05-21T01:15:34.774Z,15.44
2019-05-21T01:16:34.732Z,15.38
2019-05-21T01:17:34.711Z,15.32
2019-05-21T01:18:34.734Z,15.43
2019-05-21T01:19:34.719Z,15.43
2019-05-21T01:20:34.679Z,15.39
2019-05-21T01:21:34.669Z,15.43
2019-05-21T01:22:34.659Z,15.29
2019-05-21T01:23:34.655Z,15.38
2019-05-21T01:24:34.631Z,15.36
2019-05-21T01:25:34.628Z,15.39
2019-05-21T01:26:34.617Z,15.43
2019-05-21T01:27:34.608Z,15.28
2019-05-21T01:28:34.623Z,15.36
2019-05-21T01:29:34.585Z,15.35
2019-05-21T01:30:34.595Z,15.32
2019-05-21T01:31:34.555Z,15.36
2019-05-21T01:32:34.537Z,15.31
2019-05-21T01:33:34.537Z,15.31
2019-05-21T01:34:34.700Z,15.29
2019-05-21T01:35:34.515Z,15.27
2019-05-21T01:36:34.523Z,15.31
2019-05-21T01:37:34.489Z,15.34
2019-05-21T01:38:34.491Z,15.29
2019-05-21T01:39:34.456Z,15.27
2019-05-21T01:40:34.447Z,15.28
2019-05-21T01:41:34.441Z,15.27
2019-05-21T01:42:34.433Z,15.25
2019-05-21T01:43:34.465Z,15.25
2019-05-21T01:44:34.431Z,15.28
2019-05-21T01:45:34.391Z,15.28
2019-05-21T01:46:34.387Z,15.29
2019-05-21T01:47:34.400Z,15.25
2019-05-21T01:48:34.381Z,15.25
2019-05-21T01:49:34.367Z,15.29
2019-05-21T01:50:34.341Z,15.25
2019-05-21T01:51:34.335Z,15.29
2019-05-21T01:52:34.327Z,15.28
2019-05-21T01:53:34.301Z,15.19
2019-05-21T01:54:34.302Z,15.21
2019-05-21T01:55:34.278Z,15.23
2019-05-21T01:56:34.273Z,15.34
2019-05-21T01:57:34.263Z,15.25
2019-05-21T01:58:34.256Z,15.27
2019-05-21T01:59:34.260Z,15.14
2019-05-21T02:00:34.258Z,15.17
2019-05-21T02:01:34.218Z,15.17
2019-05-21T02:02:34.203Z,15.11
2019-05-21T02:03:34.189Z,15.19
2019-05-21T02:04:34.226Z,15.06
2019-05-21T02:05:34.182Z,15.14
2019-05-21T02:06:34.187Z,15.10
2019-05-21T02:07:34.152Z,15.17
2019-05-21T02:08:34.137Z,15.17
2019-05-21T02:09:34.151Z,15.14
2019-05-21T02:10:34.127Z,15.17
2019-05-21T02:11:34.106Z,15.14
2019-05-21T02:12:34.097Z,15.14
2019-05-21T02:13:34.086Z,15.14
2019-05-21T02:14:34.085Z,15.11
2019-05-21T02:15:34.063Z,15.07
2019-05-21T02:16:34.059Z,15.17
2019-05-21T02:17:34.044Z,15.09
2019-05-21T02:18:34.028Z,15.10
2019-05-21T02:19:34.072Z,15.03
2019-05-21T02:20:34.016Z,14.99
2019-05-21T02:21:34.024Z,15.03
2019-05-21T02:22:34.010Z,15.09
2019-05-21T02:23:33.972Z,15.02
2019-05-21T02:24:33.998Z,15.06
2019-05-21T02:25:33.950Z,15.06
2019-05-21T02:26:33.950Z,15.09
2019-05-21T02:27:33.928Z,15.02
2019-05-21T02:28:33.919Z,15.06
2019-05-21T02:29:33.925Z,15.06
2019-05-21T02:30:33.905Z,15.02
2019-05-21T02:31:33.898Z,15.07
2019-05-21T02:32:33.878Z,15.01
2019-05-21T02:33:33.867Z,14.98
2019-05-21T02:34:33.886Z,15.06
2019-05-21T02:35:52.408Z,15.01
2019-05-21T02:36:34.833Z,14.91
2019-05-21T02:37:33.820Z,14.89
2019-05-21T02:38:33.822Z,14.92
2019-05-21T02:39:33.843Z,14.96
2019-05-21T02:40:33.801Z,14.98
2019-05-21T02:41:33.781Z,15.01
2019-05-21T02:42:33.780Z,15.06
2019-05-21T02:43:33.758Z,14.99
2019-05-21T02:44:33.754Z,14.94
2019-05-21T02:45:33.742Z,14.96
2019-05-21T02:46:33.722Z,14.99
2019-05-21T02:47:33.715Z,14.95
2019-05-21T02:48:33.717Z,14.88
2019-05-21T02:49:33.696Z,14.88
2019-05-21T02:50:33.681Z,14.88
2019-05-21T02:51:33.673Z,14.83
2019-05-21T02:52:33.662Z,14.83
2019-05-21T02:53:34.719Z,14.88
2019-05-21T02:54:40.743Z,14.88
2019-05-21T02:55:34.634Z,14.83
2019-05-21T02:56:33.620Z,14.81
2019-05-21T02:57:33.613Z,14.80
2019-05-21T02:58:36.558Z,14.81
2019-05-21T02:59:33.591Z,14.80
2019-05-21T03:00:38.232Z,14.73
2019-05-21T03:01:34.558Z,14.75
2019-05-21T03:02:33.560Z,14.81
2019-05-21T03:03:33.549Z,14.81
2019-05-21T03:04:33.564Z,14.78
2019-05-21T03:05:33.517Z,14.78
2019-05-21T03:06:33.506Z,14.75
2019-05-21T03:07:33.502Z,14.83
2019-05-21T03:08:37.629Z,14.78
2019-05-21T03:09:33.485Z,14.77
2019-05-21T03:10:33.477Z,14.80
2019-05-21T03:11:33.448Z,14.75
2019-05-21T03:12:33.442Z,14.70
2019-05-21T03:13:33.436Z,14.73
2019-05-21T03:14:33.435Z,14.75
2019-05-21T03:15:33.421Z,14.75
2019-05-21T03:16:33.397Z,14.70
2019-05-21T03:17:33.383Z,14.77
2019-05-21T03:18:33.377Z,14.72
2019-05-21T03:19:33.369Z,14.78
2019-05-21T03:20:33.385Z,14.73
2019-05-21T03:21:33.350Z,14.77
2019-05-21T03:22:33.337Z,14.73
2019-05-21T03:23:33.328Z,14.73
2019-05-21T03:24:36.041Z,14.72
2019-05-21T03:25:33.329Z,14.64
2019-05-21T03:26:33.321Z,14.70
2019-05-21T03:27:33.293Z,14.75
2019-05-21T03:28:33.269Z,14.72
2019-05-21T03:29:33.252Z,14.70
2019-05-21T03:30:33.254Z,14.70
2019-05-21T03:31:33.245Z,14.78
2019-05-21T03:32:33.220Z,14.75
2019-05-21T03:33:33.215Z,14.72
2019-05-21T03:34:33.210Z,14.68
2019-05-21T03:35:33.229Z,14.75
2019-05-21T03:36:34.441Z,14.75
2019-05-21T03:37:33.165Z,14.68
2019-05-21T03:38:33.154Z,14.72
2019-05-21T03:39:33.158Z,14.70
2019-05-21T03:40:33.143Z,14.68
2019-05-21T03:41:33.134Z,14.75
2019-05-21T03:42:33.112Z,14.69
2019-05-21T03:43:33.121Z,14.72
2019-05-21T03:44:33.118Z,14.64
2019-05-21T03:45:33.141Z,14.75
2019-05-21T03:46:33.144Z,14.75
2019-05-21T03:47:33.060Z,14.72
2019-05-21T03:48:33.090Z,14.77
2019-05-21T03:49:33.039Z,14.69
2019-05-21T03:50:33.024Z,14.72
2019-05-21T03:51:33.015Z,14.73
2019-05-21T03:52:33.006Z,14.72
2019-05-21T03:53:33.022Z,14.68
2019-05-21T03:54:32.991Z,14.72
2019-05-21T03:55:32.979Z,14.72
2019-05-21T03:56:32.979Z,14.68
2019-05-21T03:57:32.972Z,14.72
2019-05-21T03:58:32.941Z,14.77
2019-05-21T03:59:32.954Z,14.73
2019-05-21T04:00:32.929Z,14.77
2019-05-21T04:01:32.941Z,14.73
2019-05-21T04:02:32.896Z,14.77
2019-05-21T04:03:32.922Z,14.70
2019-05-21T04:04:32.883Z,14.69
2019-05-21T04:05:32.881Z,14.64
2019-05-21T04:06:50.271Z,14.72
2019-05-21T04:07:33.839Z,14.73
2019-05-21T04:08:32.839Z,14.72
2019-05-21T04:09:32.819Z,14.73
2019-05-21T04:10:32.998Z,14.75
2019-05-21T04:11:32.793Z,14.68
2019-05-21T04:12:32.783Z,14.78
2019-05-21T04:13:32.775Z,14.75
2019-05-21T04:14:32.763Z,14.80
2019-05-21T04:15:33.544Z,14.73
2019-05-21T04:16:32.748Z,14.73
2019-05-21T04:17:34.739Z,14.83
2019-05-21T04:18:32.742Z,14.69
2019-05-21T04:19:32.731Z,14.73
2019-05-21T04:20:32.699Z,14.80
2019-05-21T04:21:32.715Z,14.77
2019-05-21T04:22:32.677Z,14.92
2019-05-21T04:23:32.666Z,14.88
2019-05-21T04:24:32.654Z,14.88
2019-05-21T04:25:32.646Z,14.89
2019-05-21T04:26:32.650Z,14.83
2019-05-21T04:27:32.623Z,14.84
2019-05-21T04:28:32.607Z,14.88
2019-05-21T04:29:32.599Z,14.92
2019-05-21T04:30:32.621Z,14.91
2019-05-21T04:31:33.052Z,14.88
2019-05-21T04:32:32.611Z,14.89
2019-05-21T04:33:32.562Z,14.95
2019-05-21T04:34:32.542Z,14.95
2019-05-21T04:35:32.546Z,14.92
2019-05-21T04:36:32.558Z,14.92
2019-05-21T04:37:32.515Z,14.94
2019-05-21T04:38:32.540Z,14.88
2019-05-21T04:39:32.495Z,14.94
2019-05-21T04:40:32.477Z,14.95
2019-05-21T04:41:32.480Z,14.98
2019-05-21T04:42:32.454Z,14.94
2019-05-21T04:43:32.450Z,14.95
2019-05-21T04:44:32.487Z,15.01
2019-05-21T04:45:32.426Z,15.01
2019-05-21T04:46:32.443Z,14.96
2019-05-21T04:47:32.403Z,15.01
2019-05-21T04:48:32.399Z,15.07
2019-05-21T04:49:32.383Z,14.99
2019-05-21T04:50:32.366Z,14.98
2019-05-21T04:51:32.431Z,14.99
2019-05-21T04:52:32.342Z,14.98
2019-05-21T04:53:32.340Z,14.96
2019-05-21T04:54:32.327Z,15.01
2019-05-21T04:55:32.317Z,14.99
2019-05-21T04:56:32.304Z,15.03
2019-05-21T04:57:32.304Z,15.03
2019-05-21T04:58:32.279Z,15.06
2019-05-21T04:59:32.273Z,15.10
2019-05-21T05:00:32.258Z,15.14
2019-05-21T05:01:32.242Z,15.19
2019-05-21T05:02:32.238Z,15.09
2019-05-21T05:03:32.221Z,15.20
2019-05-21T05:04:32.212Z,15.13
2019-05-21T05:05:32.200Z,15.13
2019-05-21T05:06:32.189Z,15.19
2019-05-21T05:07:32.201Z,15.27
2019-05-21T05:08:32.175Z,15.21
2019-05-21T05:09:32.150Z,15.25
2019-05-21T05:10:32.152Z,15.31
2019-05-21T05:11:32.134Z,15.32
2019-05-21T05:12:32.129Z,15.29
2019-05-21T05:13:32.114Z,15.35
2019-05-21T05:14:32.099Z,15.31
2019-05-21T05:15:32.086Z,15.34
2019-05-21T05:16:32.087Z,15.31
2019-05-21T05:17:32.074Z,15.32
2019-05-21T05:18:32.053Z,15.38
2019-05-21T05:19:32.052Z,15.41
2019-05-21T05:20:32.032Z,15.41
2019-05-21T05:21:32.012Z,15.44
2019-05-21T05:22:32.009Z,15.44
2019-05-21T05:23:31.994Z,15.43
2019-05-21T05:24:31.982Z,15.46
2019-05-21T05:25:31.995Z,15.36
2019-05-21T05:26:31.956Z,15.49
2019-05-21T05:27:31.959Z,15.44
2019-05-21T05:28:31.930Z,15.44
2019-05-21T05:29:31.919Z,15.44
2019-05-21T05:30:31.918Z,15.44
2019-05-21T05:31:31.912Z,15.49
2019-05-21T05:32:31.890Z,15.53
2019-05-21T05:33:31.874Z,15.51
2019-05-21T05:34:31.870Z,15.47
2019-05-21T05:35:31.853Z,15.53
2019-05-21T05:36:31.838Z,15.53
2019-05-21T05:37:43.307Z,15.51
2019-05-21T05:38:32.819Z,15.51
2019-05-21T05:39:31.811Z,15.53
2019-05-21T05:40:31.791Z,15.53
2019-05-21T05:41:31.790Z,15.56
2019-05-21T05:42:31.797Z,15.50
2019-05-21T05:43:31.762Z,15.49
2019-05-21T05:44:31.744Z,15.60
2019-05-21T05:45:31.739Z,15.65
2019-05-21T05:46:31.729Z,15.62
2019-05-21T05:47:31.813Z,15.62
2019-05-21T05:48:31.704Z,15.68
2019-05-21T05:49:31.686Z,15.69
2019-05-21T05:50:31.680Z,15.75
2019-05-21T05:51:31.662Z,15.68
2019-05-21T05:52:31.695Z,15.74
2019-05-21T05:53:31.653Z,15.78
2019-05-21T05:54:31.634Z,15.78
2019-05-21T05:55:31.624Z,15.78
2019-05-21T05:56:31.614Z,15.82
2019-05-21T05:57:31.601Z,15.83
2019-05-21T05:58:31.598Z,15.82
2019-05-21T05:59:31.572Z,15.86
2019-05-21T06:00:31.565Z,15.96
2019-05-21T06:01:31.586Z,15.93
2019-05-21T06:02:31.541Z,15.90
2019-05-21T06:03:31.550Z,15.86
2019-05-21T06:04:31.526Z,15.90
2019-05-21T06:05:31.518Z,16.00
2019-05-21T06:06:31.498Z,16.00
2019-05-21T06:07:31.486Z,16.05
2019-05-21T06:08:31.487Z,16.07
2019-05-21T06:09:31.511Z,16.11
2019-05-21T06:10:31.447Z,16.23
2019-05-21T06:11:31.439Z,16.15
2019-05-21T06:12:31.425Z,16.24
2019-05-21T06:13:31.446Z,16.25
2019-05-21T06:14:31.407Z,16.24
2019-05-21T06:15:31.404Z,16.27
2019-05-21T06:16:31.377Z,16.25
2019-05-21T06:17:31.371Z,16.25
2019-05-21T06:18:31.384Z,16.28
2019-05-21T06:19:31.354Z,16.39
2019-05-21T06:20:31.338Z,16.43
2019-05-21T06:21:31.327Z,16.39
2019-05-21T06:22:31.319Z,16.34
2019-05-21T06:23:31.317Z,16.45
2019-05-21T06:24:31.294Z,16.41
2019-05-21T06:25:31.286Z,16.42
2019-05-21T06:26:31.271Z,16.43
2019-05-21T06:27:31.272Z,16.50
2019-05-21T06:28:31.253Z,16.46
2019-05-21T06:29:31.238Z,16.46
2019-05-21T06:30:31.231Z,16.50
2019-05-21T06:31:31.222Z,16.52
2019-05-21T06:32:31.199Z,16.50
2019-05-21T06:33:31.207Z,16.50
2019-05-21T06:34:31.191Z,16.50
2019-05-21T06:35:31.172Z,16.57
2019-05-21T06:36:31.155Z,16.57
2019-05-21T06:37:31.144Z,16.53
2019-05-21T06:38:31.140Z,16.61
2019-05-21T06:39:31.151Z,16.60
2019-05-21T06:40:31.119Z,16.63
2019-05-21T06:41:31.105Z,16.68
2019-05-21T06:42:31.103Z,16.63
2019-05-21T06:43:31.097Z,16.67
2019-05-21T06:44:31.077Z,16.73
2019-05-21T06:45:31.057Z,16.78
2019-05-21T06:46:31.044Z,16.81
2019-05-21T06:47:31.037Z,16.83
2019-05-21T06:48:31.042Z,16.78
2019-05-21T06:49:31.011Z,16.82
2019-05-21T06:50:31.025Z,16.83
2019-05-21T06:51:31.071Z,16.89
2019-05-21T06:52:30.982Z,16.93
2019-05-21T06:53:30.984Z,16.89
2019-05-21T06:54:30.972Z,16.89
2019-05-21T06:55:30.949Z,16.89
2019-05-21T06:56:30.937Z,16.89
2019-05-21T06:57:30.926Z,17.03
2019-05-21T06:58:30.919Z,17.06
2019-05-21T06:59:30.908Z,17.00
2019-05-21T07:00:30.887Z,17.00
2019-05-21T07:01:30.940Z,17.03
2019-05-21T07:02:30.869Z,17.01
2019-05-21T07:03:30.886Z,17.03
2019-05-21T07:04:30.858Z,17.11
2019-05-21T07:05:30.846Z,17.07
2019-05-21T07:06:30.822Z,17.03
2019-05-21T07:07:30.815Z,17.14
2019-05-21T07:08:34.500Z,17.18
2019-05-21T07:09:30.803Z,17.22
2019-05-21T07:10:30.777Z,17.19
2019-05-21T07:11:30.774Z,17.21
2019-05-21T07:12:30.753Z,17.19
2019-05-21T07:13:31.251Z,17.16
2019-05-21T07:14:30.740Z,17.26
2019-05-21T07:15:30.722Z,17.28
2019-05-21T07:16:30.729Z,17.33
2019-05-21T07:17:30.737Z,17.38
2019-05-21T07:18:30.688Z,17.40
2019-05-21T07:19:30.686Z,17.36
2019-05-21T07:20:30.664Z,17.40
2019-05-21T07:21:30.658Z,17.48
2019-05-21T07:22:30.694Z,17.51
2019-05-21T07:23:30.636Z,17.43
2019-05-21T07:24:30.634Z,17.55
2019-05-21T07:25:30.606Z,17.59
2019-05-21T07:26:30.632Z,17.64
2019-05-21T07:27:30.601Z,17.68
2019-05-21T07:28:30.582Z,17.75
2019-05-21T07:29:30.575Z,17.70
2019-05-21T07:30:30.559Z,17.66
2019-05-21T07:31:30.538Z,17.72
2019-05-21T07:32:30.531Z,17.77
2019-05-21T07:33:30.522Z,17.79
2019-05-21T07:34:30.522Z,17.78
2019-05-21T07:35:30.493Z,17.74
2019-05-21T07:36:30.483Z,17.89
2019-05-21T07:37:30.472Z,17.84
2019-05-21T07:38:30.459Z,17.90
2019-05-21T07:39:30.464Z,17.95
2019-05-21T07:40:30.444Z,17.95
2019-05-21T07:41:30.436Z,17.97
2019-05-21T07:42:30.413Z,18.03
2019-05-21T07:43:30.407Z,18.02
2019-05-21T07:44:30.408Z,18.02
2019-05-21T07:45:30.384Z,18.08
2019-05-21T07:46:30.378Z,18.20
2019-05-21T07:47:30.358Z,18.21
2019-05-21T07:48:30.347Z,18.25
2019-05-21T07:49:30.360Z,18.21
2019-05-21T07:50:30.323Z,18.21
2019-05-21T07:51:30.327Z,18.21
2019-05-21T07:52:30.306Z,18.32
2019-05-21T07:53:30.293Z,18.32
2019-05-21T07:54:30.292Z,18.39
2019-05-21T07:55:30.267Z,18.35
2019-05-21T07:56:30.258Z,18.47
2019-05-21T07:57:30.251Z,18.39
2019-05-21T07:58:30.239Z,18.51
2019-05-21T07:59:30.236Z,18.48
2019-05-21T08:00:30.213Z,18.52
2019-05-21T08:01:30.206Z,18.57
2019-05-21T08:02:30.193Z,18.51
2019-05-21T08:03:30.187Z,18.55
2019-05-21T08:04:30.198Z,18.58
2019-05-21T08:05:30.157Z,18.63
2019-05-21T08:06:30.149Z,18.62
2019-05-21T08:07:30.137Z,18.60
2019-05-21T08:08:30.130Z,18.67
2019-05-21T08:09:30.133Z,18.70
2019-05-21T08:10:30.213Z,18.91
2019-05-21T08:11:30.088Z,18.84
2019-05-21T08:12:38.740Z,18.87
2019-05-21T08:13:31.070Z,18.87
2019-05-21T08:14:30.076Z,18.92
2019-05-21T08:15:30.055Z,18.88
2019-05-21T08:16:30.040Z,18.85
2019-05-21T08:17:30.027Z,18.85
2019-05-21T08:18:30.019Z,18.95
2019-05-21T08:19:31.272Z,18.99
2019-05-21T08:20:30.000Z,19.00
2019-05-21T08:21:29.989Z,18.98
2019-05-21T08:22:29.976Z,18.92
2019-05-21T08:23:29.968Z,19.00
2019-05-21T08:24:29.970Z,19.00
2019-05-21T08:25:29.974Z,19.10
2019-05-21T08:26:29.925Z,19.28
2019-05-21T08:27:29.915Z,19.23
2019-05-21T08:28:29.903Z,19.23
2019-05-21T08:29:29.894Z,19.28
2019-05-21T08:30:29.883Z,19.33
2019-05-21T08:31:29.872Z,19.41
2019-05-21T08:32:29.858Z,19.40
2019-05-21T08:33:29.841Z,19.37
2019-05-21T08:34:29.835Z,19.44
2019-05-21T08:35:29.829Z,19.39
2019-05-21T08:36:29.814Z,19.44
2019-05-21T08:37:29.812Z,19.32
2019-05-21T08:38:29.796Z,19.40
2019-05-21T08:39:29.782Z,19.44
2019-05-21T08:40:29.776Z,19.44
2019-05-21T08:41:29.756Z,19.46
2019-05-21T08:42:29.747Z,19.50
2019-05-21T08:43:29.732Z,19.50
2019-05-21T08:44:29.723Z,19.55
2019-05-21T08:45:29.721Z,19.54
2019-05-21T08:46:29.708Z,19.58
2019-05-21T08:47:29.715Z,19.61
2019-05-21T08:48:29.686Z,19.74
2019-05-21T08:49:29.662Z,19.71
2019-05-21T08:50:29.660Z,19.77
2019-05-21T08:51:29.639Z,19.81
2019-05-21T08:52:29.626Z,19.92
2019-05-21T08:53:29.619Z,19.92
2019-05-21T08:54:29.612Z,19.86
2019-05-21T08:55:29.607Z,19.81
2019-05-21T08:56:29.590Z,19.73
2019-05-21T08:57:29.576Z,19.81
2019-05-21T08:58:29.568Z,19.81
2019-05-21T08:59:29.553Z,19.84
2019-05-21T09:00:29.560Z,19.84
2019-05-21T09:01:29.526Z,19.94
2019-05-21T09:02:29.515Z,19.96
2019-05-21T09:03:29.513Z,20.02
2019-05-21T09:04:45.379Z,20.01
2019-05-21T09:05:30.493Z,20.05
2019-05-21T09:06:29.474Z,20.10
2019-05-21T09:07:29.464Z,19.99
2019-05-21T09:08:29.449Z,19.99
2019-05-21T09:09:48.423Z,20.10
2019-05-21T09:10:30.442Z,20.10
2019-05-21T09:11:29.488Z,20.06
2019-05-21T09:12:29.443Z,20.11
2019-05-21T09:13:29.398Z,20.14
2019-05-21T09:14:29.381Z,20.11
2019-05-21T09:15:29.379Z,20.18
2019-05-21T09:16:29.365Z,20.24
2019-05-21T09:17:29.349Z,20.26
2019-05-21T09:18:29.338Z,20.18
2019-05-21T09:19:29.325Z,20.35
2019-05-21T09:20:29.323Z,20.32
2019-05-21T09:21:29.318Z,20.33
2019-05-21T09:22:29.315Z,20.41
2019-05-21T09:23:29.285Z,20.50
2019-05-21T09:24:29.271Z,20.54
2019-05-21T09:25:29.269Z,20.55
2019-05-21T09:26:29.259Z,20.55
2019-05-21T09:27:29.244Z,20.64
2019-05-21T09:28:29.231Z,20.58
2019-05-21T09:29:29.226Z,20.58
2019-05-21T09:30:29.215Z,20.69
2019-05-21T09:31:29.192Z,20.72
2019-05-21T09:32:29.181Z,20.70
2019-05-21T09:33:29.182Z,20.73
2019-05-21T09:34:29.163Z,20.84
2019-05-21T09:35:29.158Z,20.89
2019-05-21T09:36:29.144Z,20.87
2019-05-21T09:37:29.123Z,20.87
2019-05-21T09:38:29.116Z,20.88
2019-05-21T09:39:29.103Z,20.74
2019-05-21T09:40:29.103Z,20.89
2019-05-21T09:41:29.080Z,20.99
2019-05-21T09:42:29.072Z,21.09
2019-05-21T09:43:29.064Z,21.06
2019-05-21T09:44:29.045Z,20.97
2019-05-21T09:45:29.059Z,20.95
2019-05-21T09:46:29.035Z,21.07
2019-05-21T09:47:29.025Z,21.13
2019-05-21T09:48:29.007Z,21.31
2019-05-21T09:49:28.989Z,21.42
2019-05-21T09:50:28.978Z,21.42
2019-05-21T09:51:28.975Z,21.52
2019-05-21T09:52:28.961Z,21.49
2019-05-21T09:53:28.958Z,21.46
2019-05-21T09:54:28.940Z,21.43
2019-05-21T09:55:28.930Z,21.47
2019-05-21T09:56:28.940Z,21.47
2019-05-21T09:57:28.910Z,21.56
2019-05-21T09:58:28.904Z,21.67
2019-05-21T09:59:28.884Z,21.80
2019-05-21T10:00:28.871Z,21.90
2019-05-21T10:01:28.873Z,21.92
2019-05-21T10:02:28.852Z,21.94
2019-05-21T10:03:28.839Z,22.05
2019-05-21T10:04:28.822Z,22.02
2019-05-21T10:05:28.817Z,22.10
2019-05-21T10:06:28.816Z,22.21
2019-05-21T10:07:39.074Z,22.24
2019-05-21T10:08:29.786Z,22.15
2019-05-21T10:09:28.770Z,22.27
2019-05-21T10:10:28.768Z,22.17
2019-05-21T10:11:28.780Z,22.22
2019-05-21T10:12:28.738Z,22.24
2019-05-21T10:13:28.727Z,22.25
2019-05-21T10:14:28.712Z,22.33
2019-05-21T10:15:28.708Z,22.45
2019-05-21T10:16:28.727Z,22.46
2019-05-21T10:17:28.681Z,22.46
2019-05-21T10:18:28.669Z,22.42
2019-05-21T10:19:28.660Z,22.49
2019-05-21T10:20:28.647Z,22.61
2019-05-21T10:21:28.632Z,22.70
2019-05-21T10:22:28.636Z,22.67
2019-05-21T10:23:28.607Z,22.68
2019-05-21T10:24:28.597Z,22.64
2019-05-21T10:25:28.593Z,22.68
2019-05-21T10:26:28.640Z,22.64
2019-05-21T10:27:28.575Z,22.80
2019-05-21T10:28:28.553Z,22.90
2019-05-21T10:29:28.544Z,22.77
2019-05-21T10:30:28.536Z,22.86
2019-05-21T10:31:28.583Z,22.92
2019-05-21T10:32:28.528Z,23.00
2019-05-21T10:33:28.509Z,22.94
2019-05-21T10:34:28.492Z,23.17
2019-05-21T10:35:28.480Z,23.39
2019-05-21T10:36:28.464Z,24.16
2019-05-21T10:37:28.468Z,25.67
2019-05-21T10:38:28.449Z,27.31
2019-05-21T10:39:28.434Z,28.88
2019-05-21T10:40:28.419Z,30.22
2019-05-21T10:41:28.412Z,31.01
2019-05-21T10:42:28.415Z,31.29
2019-05-21T10:43:28.396Z,31.16
2019-05-21T10:44:28.375Z,31.63
2019-05-21T10:45:28.369Z,32.55
2019-05-21T10:46:28.362Z,32.99
2019-05-21T10:47:28.368Z,33.86
2019-05-21T10:48:28.333Z,33.50
2019-05-21T10:49:28.329Z,33.28
2019-05-21T10:50:28.314Z,34.06
2019-05-21T10:51:28.316Z,34.80
2019-05-21T10:52:28.301Z,35.11
2019-05-21T10:53:28.376Z,35.58
2019-05-21T10:54:28.280Z,36.16
2019-05-21T10:55:28.268Z,36.31
2019-05-21T10:56:28.263Z,36.87
2019-05-21T10:57:28.271Z,36.85
2019-05-21T10:58:28.242Z,36.25
2019-05-21T10:59:28.229Z,36.72
2019-05-21T11:00:28.223Z,36.88
2019-05-21T11:01:28.217Z,36.17
2019-05-21T11:02:28.216Z,35.31
2019-05-21T11:03:28.199Z,34.85
2019-05-21T11:04:28.194Z,33.95
2019-05-21T11:05:28.942Z,33.76
2019-05-21T11:06:28.163Z,33.73
2019-05-21T11:07:28.180Z,33.23
2019-05-21T11:08:28.146Z,32.72
2019-05-21T11:09:28.145Z,32.51
2019-05-21T11:10:28.142Z,32.03
2019-05-21T11:11:28.145Z,31.56
2019-05-21T11:12:28.116Z,30.98
2019-05-21T11:13:28.112Z,30.51
2019-05-21T11:14:28.095Z,30.22
2019-05-21T11:15:28.093Z,30.05
2019-05-21T11:16:28.082Z,30.54
2019-05-21T11:17:28.068Z,31.23
2019-05-21T11:18:28.066Z,32.13
2019-05-21T11:19:28.061Z,32.84
2019-05-21T11:20:28.037Z,33.75
2019-05-21T11:21:28.028Z,34.39
2019-05-21T11:22:28.024Z,35.19
2019-05-21T11:23:28.035Z,35.97
2019-05-21T11:24:28.001Z,36.34
2019-05-21T11:25:27.994Z,36.38
2019-05-21T11:26:27.980Z,36.99
2019-05-21T11:27:27.977Z,37.02
2019-05-21T11:28:27.975Z,36.56
2019-05-21T11:29:27.994Z,35.89
2019-05-21T11:30:27.953Z,34.44
2019-05-21T11:31:27.936Z,33.26
2019-05-21T11:32:27.928Z,32.32
2019-05-21T11:33:27.933Z,31.36
2019-05-21T11:34:27.929Z,30.58
2019-05-21T11:35:27.904Z,30.19
2019-05-21T11:36:27.896Z,30.00
2019-05-21T11:37:27.882Z,29.78
2019-05-21T11:38:39.418Z,29.90
2019-05-21T11:39:28.862Z,30.24
2019-05-21T11:40:27.856Z,30.72
2019-05-21T11:41:27.841Z,31.02
2019-05-21T11:42:27.835Z,31.04
2019-05-21T11:43:27.833Z,30.89
2019-05-21T11:44:27.818Z,30.70
2019-05-21T11:45:32.175Z,30.72
2019-05-21T11:46:28.798Z,31.01
2019-05-21T11:47:27.794Z,31.32
2019-05-21T11:48:27.787Z,32.06
2019-05-21T11:49:27.766Z,31.86
2019-05-21T11:50:27.765Z,32.03
2019-05-21T11:51:27.767Z,32.66
2019-05-21T11:52:27.736Z,32.85
2019-05-21T11:53:31.379Z,32.89
2019-05-21T11:54:27.717Z,32.87
2019-05-21T11:55:27.701Z,32.74
2019-05-21T11:56:27.700Z,32.72
2019-05-21T11:57:27.703Z,32.93
2019-05-21T11:58:27.691Z,33.06
2019-05-21T11:59:27.671Z,33.38
2019-05-21T12:00:27.657Z,33.93
2019-05-21T12:01:27.652Z,34.05
2019-05-21T12:02:27.637Z,34.81
2019-05-21T12:03:27.633Z,35.43
2019-05-21T12:04:27.634Z,36.01
2019-05-21T12:05:27.619Z,36.39
2019-05-21T12:06:27.602Z,36.85
2019-05-21T12:07:27.595Z,37.51
2019-05-21T12:08:27.596Z,38.01
2019-05-21T12:09:27.590Z,38.04
2019-05-21T12:10:27.573Z,38.09
2019-05-21T12:11:27.559Z,37.91
2019-05-21T12:12:27.587Z,37.51
2019-05-21T12:13:27.588Z,36.99
2019-05-21T12:14:27.543Z,36.25
2019-05-21T12:15:27.528Z,36.15
2019-05-21T12:16:27.523Z,36.23
2019-05-21T12:17:27.511Z,36.64
2019-05-21T12:18:27.509Z,37.18
2019-05-21T12:19:27.510Z,37.62
2019-05-21T12:20:36.917Z,38.07
2019-05-21T12:21:28.483Z,38.44
2019-05-21T12:22:27.500Z,38.56
2019-05-21T12:23:27.573Z,38.12
2019-05-21T12:24:27.807Z,37.25
2019-05-21T12:25:27.478Z,36.53
2019-05-21T12:26:27.459Z,35.84
2019-05-21T12:27:27.435Z,35.18
2019-05-21T12:28:27.422Z,34.78
2019-05-21T12:29:27.423Z,34.22
2019-05-21T12:30:27.412Z,33.98
2019-05-21T12:31:27.407Z,33.44
2019-05-21T12:32:27.391Z,32.89
2019-05-21T12:33:27.381Z,32.38
2019-05-21T12:34:27.386Z,31.58
2019-05-21T12:35:27.371Z,30.89
2019-05-21T12:36:27.365Z,30.08
2019-05-21T12:37:27.350Z,29.45
2019-05-21T12:38:27.349Z,29.12
2019-05-21T12:39:27.384Z,28.96
2019-05-21T12:40:27.320Z,28.71
2019-05-21T12:41:27.336Z,28.54
2019-05-21T12:42:27.304Z,28.59
2019-05-21T12:43:27.291Z,28.62
2019-05-21T12:44:27.287Z,29.30
2019-05-21T12:45:27.295Z,30.05
2019-05-21T12:46:27.261Z,31.26
2019-05-21T12:47:27.255Z,32.14
2019-05-21T12:48:27.240Z,32.66
2019-05-21T12:49:27.240Z,32.13
2019-05-21T12:50:27.222Z,31.38
2019-05-21T12:51:27.215Z,30.88
2019-05-21T12:52:27.204Z,30.51